»·PEaware :: N5939V KONT-KBUR

N5939V :: KONT-KBUR

FLIGHT INFORMATION

Flight Status: Arrived
Operator: Privately registered:
United States
More flights under this callsign
Pilot: Anonymous 30260 (30260)
Aircraft: SOCATA TBM-900
(TBM9)
More flights by this aircraft type
Origin: KONT Ontario Intl
United States
Destination: KBUR Bob Hope-Burbank
United States
More flights between these airports :: More routes between these airports
Route: PDZ V197 POM V264 ITSME V186 VNY
File this flight plan on PilotEdge
Remarks: ONTP2
Altitude:
(Current/Filed)
8,000ft
Speed:
(Current/Filed)
257kts
Departed: 09-Oct-20 07:25 AM
Arrived: 09-Oct-20 07:48 AM
Distance/Time
Traveled:
39nm/0:23
Distance/Time
To Go:
Arrived

Flight Plot

Page will automatically refresh every two minutes.


Map Options




Map Legend


Flown Route
Filed Route
Departure Airport
Arrival Airport
Navaid (VOR, NDB)
Fix

Horizontal Profiles

Position Reports

Time Latitude Longitude Heading Altitude Ground
Speed
09-Oct-20 07:07 34.053066 -117.609741 272 917ft 0kts
09-Oct-20 07:08 34.053066 -117.609741 272 917ft 0kts
09-Oct-20 07:09 34.053066 -117.609741 272 917ft 0kts
09-Oct-20 07:10 34.053066 -117.609741 272 917ft 0kts
09-Oct-20 07:11 34.053066 -117.609741 272 917ft 0kts
09-Oct-20 07:12 34.053066 -117.609741 272 917ft 0kts
09-Oct-20 07:13 34.053066 -117.609741 272 917ft 0kts
09-Oct-20 07:14 34.053066 -117.609741 272 917ft 0kts
09-Oct-20 07:15 34.053066 -117.609741 272 917ft 0kts
09-Oct-20 07:16 34.053089 -117.609944 306 918ft 3kts
09-Oct-20 07:17 34.053248 -117.609694 91 918ft 0kts
09-Oct-20 07:18 34.053839 -117.608470 89 920ft 15kts
09-Oct-20 07:19 34.053840 -117.603492 88 917ft 11kts
09-Oct-20 07:20 34.053840 -117.598783 89 914ft 11kts
09-Oct-20 07:21 34.053998 -117.598159 20 914ft 0kts
09-Oct-20 07:22 34.053998 -117.598159 20 914ft 0kts
09-Oct-20 07:23 34.054844 -117.599012 292 918ft 13kts
09-Oct-20 07:24 34.055320 -117.627260 270 1652ft 120kts
09-Oct-20 07:25 34.055212 -117.668021 271 3617ft 126kts
09-Oct-20 07:26 34.058397 -117.710255 288 5415ft 132kts
09-Oct-20 07:27 34.069498 -117.752268 287 7572ft 135kts
09-Oct-20 07:28 34.078191 -117.808145 269 8038ft 220kts
09-Oct-20 07:29 34.076949 -117.884106 269 8001ft 249kts
09-Oct-20 07:30 34.075687 -117.963624 269 7988ft 254kts
09-Oct-20 07:31 34.086409 -118.042013 291 7982ft 253kts
09-Oct-20 07:32 34.110395 -118.120078 291 7975ft 254kts
09-Oct-20 07:33 34.134784 -118.199828 291 7978ft 253kts
09-Oct-20 07:34 34.149026 -118.282238 272 7391ft 268kts
09-Oct-20 07:35 34.150941 -118.366609 272 6037ft 269kts
09-Oct-20 07:36 34.152655 -118.447992 272 5918ft 244kts
09-Oct-20 07:37 34.147420 -118.526153 261 5853ft 240kts
09-Oct-20 07:38 34.138295 -118.603281 263 5949ft 230kts
09-Oct-20 07:39 34.154891 -118.653549 358 5087ft 187kts
09-Oct-20 07:40 34.176081 -118.623725 61 4107ft 171kts
09-Oct-20 07:41 34.191701 -118.585805 60 3873ft 160kts
09-Oct-20 07:42 34.200447 -118.548530 89 3725ft 152kts
09-Oct-20 07:43 34.199612 -118.496997 94 2792ft 118kts
09-Oct-20 07:44 34.199121 -118.457981 85 2221ft 96kts
09-Oct-20 07:45 34.198543 -118.422062 89 1685ft 92kts
09-Oct-20 07:46 34.198151 -118.386726 87 1078ft 92kts
09-Oct-20 07:47 34.197915 -118.360421 46 715ft 15kts
09-Oct-20 07:48 34.198671 -118.360267 339 717ft 3kts
09-Oct-20 07:49 34.199236 -118.363207 316 723ft 8kts
09-Oct-20 07:50 34.199908 -118.363636 49 725ft 6kts
09-Oct-20 07:51 34.200057 -118.363612 357 725ft 0kts
09-Oct-20 07:52 34.200057 -118.363612 357 725ft 0kts
09-Oct-20 07:53 34.200057 -118.363612 357 725ft 0kts
09-Oct-20 07:54 34.200057 -118.363612 357 725ft 0kts
09-Oct-20 07:55 34.200057 -118.363612 357 725ft 0kts
09-Oct-20 07:56 34.200057 -118.363612 357 725ft 0kts
09-Oct-20 07:57 34.200057 -118.363612 357 725ft 0kts
09-Oct-20 07:58 34.200057 -118.363612 357 725ft 0kts

Navigation Log

Ident Type
Flight plan parsing failed, navigation log unavailable